Time;durP1;ratioP1;P1;durP2;ratioP2;P2;SDS_P1;SDS_P2;PMS_P1;PMS_P2;Temp;Humidity;BMP_temperature;BMP_pressure;BME280_temperature;BME280_humidity;BME280_pressure;Samples;Min_cycle;Max_cycle;Signal;HPM_P1;HPM_P2
2021/09/12 00:00:20;;;;;;;10.85;6.60;;;14.80;80.50;;;;;;5023977;28;20104;-70
2021/09/12 00:02:46;;;;;;;15.02;7.75;;;14.70;80.60;;;;;;5027637;28;20090;-70
2021/09/12 00:05:12;;;;;;;10.38;7.05;;;14.70;80.50;;;;;;5020129;28;20049;-72
2021/09/12 00:07:38;;;;;;;11.38;6.70;;;14.60;80.40;;;;;;5024755;28;20049;-71
2021/09/12 00:10:05;;;;;;;13.18;7.07;;;14.60;80.40;;;;;;5023628;28;20026;-70
2021/09/12 00:12:31;;;;;;;12.95;7.53;;;14.60;80.70;;;;;;5008992;28;20037;-69
2021/09/12 00:14:57;;;;;;;10.45;6.80;;;14.60;81.00;;;;;;5027258;28;20034;-70
2021/09/12 00:17:22;;;;;;;12.52;7.25;;;14.60;81.10;;;;;;5026703;28;20029;-70
2021/09/12 00:19:48;;;;;;;11.80;7.15;;;14.50;81.30;;;;;;5007834;28;20473;-70
2021/09/12 00:22:13;;;;;;;12.68;7.28;;;14.50;81.40;;;;;;5023953;28;20025;-73
2021/09/12 00:24:39;;;;;;;10.85;6.63;;;14.50;81.30;;;;;;5026261;28;20045;-70
2021/09/12 00:27:05;;;;;;;11.50;7.13;;;14.40;81.40;;;;;;5024468;28;20033;-70
2021/09/12 00:29:31;;;;;;;13.85;6.88;;;14.40;81.40;;;;;;5009611;28;20044;-69
2021/09/12 00:31:56;;;;;;;13.43;7.47;;;14.40;81.50;;;;;;5025589;28;20410;-70
2021/09/12 00:34:22;;;;;;;12.27;7.15;;;14.40;81.70;;;;;;5025859;28;20029;-70
2021/09/12 00:36:47;;;;;;;14.15;6.72;;;14.40;81.70;;;;;;5028714;28;20037;-70
2021/09/12 00:39:13;;;;;;;11.77;6.57;;;14.40;81.80;;;;;;5026307;28;20038;-71
2021/09/12 00:41:41;;;;;;;14.02;7.80;;;14.30;81.90;;;;;;5008310;28;20072;-70
2021/09/12 00:44:12;;;;;;;13.93;7.85;;;14.30;81.80;;;;;;5023103;28;20117;-69
2021/09/12 00:46:45;;;;;;;12.27;7.30;;;14.30;81.90;;;;;;5021741;28;20045;-72
2021/09/12 00:49:12;;;;;;;11.95;7.13;;;14.30;82.00;;;;;;5024262;28;20033;-71
2021/09/12 00:51:38;;;;;;;11.80;6.55;;;14.30;82.00;;;;;;5024406;28;20042;-70
2021/09/12 00:54:05;;;;;;;15.20;7.75;;;14.20;81.90;;;;;;5008867;28;20034;-70
2021/09/12 00:56:35;;;;;;;12.93;7.53;;;14.10;81.90;;;;;;5022191;28;20044;-72
2021/09/12 00:59:02;;;;;;;14.27;7.15;;;14.20;82.00;;;;;;5025159;28;20120;-72
2021/09/12 01:01:29;;;;;;;10.43;7.40;;;14.10;82.10;;;;;;5027916;28;20041;-70
2021/09/12 01:03:55;;;;;;;12.18;7.75;;;14.10;82.30;;;;;;5025937;28;20030;-69
2021/09/12 01:06:21;;;;;;;12.95;7.40;;;14.10;82.30;;;;;;5026355;28;20033;-71
2021/09/12 01:08:48;;;;;;;13.45;7.90;;;14.10;82.30;;;;;;5024592;28;20041;-70
2021/09/12 01:11:13;;;;;;;11.55;7.38;;;14.10;82.40;;;;;;5023857;28;20045;-70
2021/09/12 01:13:41;;;;;;;11.65;7.90;;;14.10;82.40;;;;;;5019383;28;20156;-70
2021/09/12 01:16:12;;;;;;;13.05;7.25;;;14.10;82.60;;;;;;5025604;28;20025;-70
2021/09/12 01:18:39;;;;;;;14.13;7.97;;;14.10;82.60;;;;;;5023676;28;20025;-70
2021/09/12 01:21:05;;;;;;;12.10;7.65;;;14.00;82.50;;;;;;5025849;28;20051;-70
2021/09/12 01:23:30;;;;;;;14.23;6.55;;;14.10;82.60;;;;;;5026159;28;20053;-72
2021/09/12 01:25:56;;;;;;;12.35;7.35;;;14.00;82.70;;;;;;5010107;28;20434;-70
2021/09/12 01:28:22;;;;;;;12.90;7.10;;;14.00;82.60;;;;;;5024876;28;20103;-69
2021/09/12 01:30:48;;;;;;;13.02;7.43;;;14.00;82.60;;;;;;5022434;28;20109;-71
2021/09/12 01:33:13;;;;;;;13.02;7.75;;;14.00;82.70;;;;;;5026368;28;20120;-70
2021/09/12 01:35:39;;;;;;;13.07;7.85;;;14.00;82.70;;;;;;5025056;28;20487;-71
2021/09/12 01:38:05;;;;;;;13.27;7.00;;;14.10;82.80;;;;;;5024513;28;20037;-70
2021/09/12 01:40:30;;;;;;;15.43;7.72;;;14.10;82.80;;;;;;5027457;28;20041;-71
2021/09/12 01:42:58;;;;;;;14.70;8.05;;;14.10;82.70;;;;;;5022673;28;20435;-70
2021/09/12 01:45:24;;;;;;;13.63;8.25;;;14.10;82.60;;;;;;5009549;28;20030;-70
2021/09/12 01:47:49;;;;;;;13.55;8.52;;;14.10;82.60;;;;;;5024359;28;20087;-71
2021/09/12 01:50:16;;;;;;;14.20;7.45;;;14.20;82.50;;;;;;5022826;28;20390;-70
2021/09/12 01:52:41;;;;;;;11.65;7.03;;;14.20;82.50;;;;;;5021738;28;20661;-71
2021/09/12 01:55:08;;;;;;;12.70;7.93;;;14.20;82.40;;;;;;5019594;28;20029;-72
2021/09/12 01:57:33;;;;;;;15.18;8.18;;;14.20;82.50;;;;;;5023797;28;20087;-68
2021/09/12 01:59:59;;;;;;;12.43;8.20;;;14.10;82.70;;;;;;5003288;28;20030;-70
2021/09/12 02:02:25;;;;;;;12.43;8.00;;;14.10;82.60;;;;;;5002401;28;20041;-68
2021/09/12 02:04:50;;;;;;;12.00;7.78;;;14.10;82.70;;;;;;5021929;28;20029;-70
2021/09/12 02:07:16;;;;;;;14.57;8.25;;;14.00;82.80;;;;;;5019998;28;20448;-68
2021/09/12 02:09:42;;;;;;;15.60;8.38;;;14.10;82.90;;;;;;5022478;28;20084;-70
2021/09/12 02:12:08;;;;;;;11.45;8.05;;;14.00;83.00;;;;;;5024171;28;20169;-70
2021/09/12 02:14:33;;;;;;;13.63;7.68;;;13.90;83.20;;;;;;5022352;28;20032;-70
2021/09/12 02:16:59;;;;;;;13.65;9.30;;;14.00;83.20;;;;;;5025296;28;20045;-70
2021/09/12 02:19:25;;;;;;;10.95;7.57;;;14.00;83.10;;;;;;5024100;28;20049;-72
2021/09/12 02:21:50;;;;;;;12.73;7.85;;;14.00;83.20;;;;;;5022340;28;20385;-70
2021/09/12 02:24:16;;;;;;;12.90;8.00;;;14.00;83.30;;;;;;5025345;28;20044;-71
2021/09/12 02:26:41;;;;;;;13.27;7.88;;;13.90;83.30;;;;;;5026770;28;20035;-68
2021/09/12 02:29:07;;;;;;;14.48;8.73;;;13.90;83.30;;;;;;5024190;28;20044;-69
2021/09/12 02:31:33;;;;;;;13.43;8.00;;;14.00;83.40;;;;;;5020390;28;20041;-69
2021/09/12 02:33:59;;;;;;;14.20;8.63;;;13.90;83.40;;;;;;5023706;28;20553;-68
2021/09/12 02:36:25;;;;;;;12.88;7.60;;;14.00;83.40;;;;;;5007689;28;20514;-69
2021/09/12 02:38:50;;;;;;;13.93;8.18;;;14.00;83.30;;;;;;5024496;28;20042;-68
2021/09/12 02:41:16;;;;;;;15.68;8.68;;;14.00;83.30;;;;;;5019692;28;20703;-69
2021/09/12 02:43:42;;;;;;;14.88;8.20;;;13.90;83.40;;;;;;5023389;28;20388;-69
2021/09/12 02:46:08;;;;;;;13.73;8.48;;;13.90;83.50;;;;;;5024010;28;20759;-69
2021/09/12 02:48:33;;;;;;;13.90;8.73;;;13.90;83.60;;;;;;5025069;28;20091;-69
2021/09/12 02:50:59;;;;;;;12.00;8.00;;;13.80;83.50;;;;;;5025402;28;20029;-69
2021/09/12 02:53:25;;;;;;;14.05;8.90;;;13.80;83.60;;;;;;5022259;28;20098;-69
2021/09/12 02:55:50;;;;;;;17.42;9.00;;;13.70;83.70;;;;;;5024221;28;20037;-69
2021/09/12 02:58:16;;;;;;;12.80;8.27;;;13.80;83.70;;;;;;5019776;28;20420;-70
2021/09/12 03:00:41;;;;;;;14.23;8.88;;;13.70;83.80;;;;;;5023634;28;20044;-69
2021/09/12 03:03:07;;;;;;;16.17;8.60;;;13.70;83.90;;;;;;5023757;28;20538;-69
2021/09/12 03:05:33;;;;;;;15.85;8.48;;;13.80;83.80;;;;;;5022378;28;20049;-69
2021/09/12 03:07:59;;;;;;;16.20;9.50;;;13.70;84.00;;;;;;5023023;28;20050;-70
2021/09/12 03:10:25;;;;;;;17.98;8.80;;;13.70;84.10;;;;;;5013890;28;20080;-70
2021/09/12 03:12:51;;;;;;;14.63;8.88;;;13.70;84.20;;;;;;5019521;28;20116;-69
2021/09/12 03:15:16;;;;;;;13.73;9.15;;;13.70;84.20;;;;;;5021334;28;20121;-69
2021/09/12 03:17:43;;;;;;;14.10;9.38;;;13.70;84.30;;;;;;5004892;28;20404;-69
2021/09/12 03:20:09;;;;;;;14.20;8.50;;;13.70;84.30;;;;;;5024510;28;20034;-69
2021/09/12 03:22:35;;;;;;;15.93;9.45;;;13.60;84.30;;;;;;5023638;28;20370;-69
2021/09/12 03:25:02;;;;;;;14.10;8.68;;;13.60;84.40;;;;;;5024495;28;20041;-70
2021/09/12 03:27:28;;;;;;;15.18;9.35;;;13.60;84.50;;;;;;5022602;28;20045;-70
2021/09/12 03:29:53;;;;;;;15.35;9.43;;;13.60;84.60;;;;;;5023831;28;20045;-69
2021/09/12 03:32:19;;;;;;;16.95;9.80;;;13.60;84.50;;;;;;5024173;28;20044;-70
2021/09/12 03:34:45;;;;;;;16.73;9.85;;;13.60;84.60;;;;;;5022768;28;20040;-70
2021/09/12 03:37:10;;;;;;;15.80;10.10;;;13.60;84.60;;;;;;5021736;28;20046;-70
2021/09/12 03:39:36;;;;;;;18.85;10.27;;;13.60;84.70;;;;;;5022903;28;20033;-69
2021/09/12 03:42:02;;;;;;;13.25;9.75;;;13.60;84.90;;;;;;5021588;28;20044;-70
2021/09/12 03:44:28;;;;;;;15.15;9.02;;;13.60;85.10;;;;;;5025216;28;20029;-69
2021/09/12 03:46:53;;;;;;;16.35;9.50;;;13.60;85.10;;;;;;5021164;28;20060;-70
2021/09/12 03:49:19;;;;;;;15.52;8.75;;;13.70;85.00;;;;;;5027219;28;20038;-69
2021/09/12 03:51:45;;;;;;;17.13;10.32;;;13.80;84.90;;;;;;5028055;28;20030;-69
2021/09/12 03:54:10;;;;;;;13.48;8.93;;;13.90;84.70;;;;;;5027768;28;20092;-69
2021/09/12 03:56:36;;;;;;;17.10;9.27;;;13.90;84.70;;;;;;5028486;28;20449;-69
2021/09/12 03:59:02;;;;;;;15.25;8.98;;;13.90;84.60;;;;;;5026030;28;20450;-69
2021/09/12 04:01:27;;;;;;;15.30;8.93;;;14.00;84.60;;;;;;5028558;28;20496;-69
2021/09/12 04:03:53;;;;;;;19.70;10.38;;;14.00;84.50;;;;;;5025304;28;20038;-70
2021/09/12 04:06:19;;;;;;;18.30;9.15;;;14.00;84.40;;;;;;5027667;28;20431;-69
2021/09/12 04:08:44;;;;;;;16.02;8.45;;;14.00;84.40;;;;;;5027526;28;20120;-69
2021/09/12 04:11:10;;;;;;;15.50;9.20;;;14.10;84.50;;;;;;5019253;28;20064;-69
2021/09/12 04:13:36;;;;;;;15.77;8.73;;;14.10;84.50;;;;;;5027744;28;20038;-69
2021/09/12 04:16:02;;;;;;;15.40;8.65;;;14.10;84.50;;;;;;5025824;28;20072;-69
2021/09/12 04:18:27;;;;;;;15.65;8.98;;;14.10;84.40;;;;;;5025535;28;20095;-71
2021/09/12 04:20:53;;;;;;;15.15;8.82;;;14.20;84.30;;;;;;5024544;28;20034;-70
2021/09/12 04:23:18;;;;;;;14.23;8.57;;;14.20;84.30;;;;;;5027610;28;20402;-69
2021/09/12 04:25:44;;;;;;;16.35;9.15;;;14.20;84.20;;;;;;5027806;28;20034;-70
2021/09/12 04:28:10;;;;;;;13.15;7.93;;;14.30;84.20;;;;;;5024842;28;20041;-69
2021/09/12 04:30:35;;;;;;;14.85;8.65;;;14.30;84.20;;;;;;5009655;28;20083;-70
2021/09/12 04:33:01;;;;;;;14.27;9.13;;;14.30;84.10;;;;;;5011552;28;20488;-69
2021/09/12 04:35:27;;;;;;;15.88;8.45;;;14.30;84.20;;;;;;5032146;28;20362;-69
2021/09/12 04:37:52;;;;;;;15.18;8.48;;;14.30;84.10;;;;;;5028980;28;20026;-69
2021/09/12 04:40:18;;;;;;;14.45;8.13;;;14.40;84.10;;;;;;5030713;28;20115;-70
2021/09/12 04:42:44;;;;;;;14.18;8.75;;;14.30;84.10;;;;;;5019643;28;20038;-70
2021/09/12 04:45:10;;;;;;;15.20;8.68;;;14.30;84.10;;;;;;5022892;28;20033;-69
2021/09/12 04:47:35;;;;;;;16.20;8.30;;;14.30;84.10;;;;;;5023887;28;20416;-69
2021/09/12 04:50:01;;;;;;;13.93;8.50;;;14.30;84.20;;;;;;5021592;28;20026;-70
2021/09/12 04:52:27;;;;;;;13.70;7.90;;;14.30;84.20;;;;;;5028125;28;20168;-69
2021/09/12 04:54:53;;;;;;;14.93;8.30;;;14.30;84.30;;;;;;5025850;28;20033;-69
2021/09/12 04:57:19;;;;;;;12.60;7.90;;;14.30;84.30;;;;;;5026462;28;20404;-72
2021/09/12 04:59:44;;;;;;;15.65;7.63;;;14.30;84.30;;;;;;5022390;28;20029;-69
2021/09/12 05:02:10;;;;;;;13.60;8.20;;;14.30;84.40;;;;;;5021973;28;20041;-69
2021/09/12 05:04:36;;;;;;;16.38;8.73;;;14.30;84.40;;;;;;5025322;28;20053;-69
2021/09/12 05:07:01;;;;;;;14.10;8.18;;;14.30;84.30;;;;;;5008104;28;20039;-69
2021/09/12 05:09:27;;;;;;;17.02;7.93;;;14.30;84.30;;;;;;5026309;28;20047;-71
2021/09/12 05:11:53;;;;;;;13.82;7.60;;;14.30;84.40;;;;;;5018064;28;20033;-69
2021/09/12 05:14:19;;;;;;;16.85;8.23;;;14.30;84.50;;;;;;5022889;28;20048;-69
2021/09/12 05:16:44;;;;;;;17.75;9.05;;;14.30;84.50;;;;;;5026657;28;21334;-69
2021/09/12 05:19:10;;;;;;;13.40;8.23;;;14.20;84.80;;;;;;5026003;28;20041;-69
2021/09/12 05:21:36;;;;;;;18.45;9.15;;;14.20;85.00;;;;;;5022068;28;20060;-71
2021/09/12 05:24:01;;;;;;;17.60;8.73;;;14.20;85.00;;;;;;5026364;28;20424;-69
2021/09/12 05:26:27;;;;;;;13.95;7.70;;;14.30;85.00;;;;;;5024584;28;20033;-70
2021/09/12 05:28:52;;;;;;;14.23;8.40;;;14.30;85.00;;;;;;5021436;28;20076;-71
2021/09/12 05:31:18;;;;;;;13.73;8.48;;;14.30;84.90;;;;;;5024535;28;20042;-69
2021/09/12 05:33:44;;;;;;;14.55;8.30;;;14.30;84.90;;;;;;5022921;28;20116;-70
2021/09/12 05:36:10;;;;;;;12.20;8.10;;;14.40;85.00;;;;;;5022880;28;20037;-69
2021/09/12 05:38:35;;;;;;;14.95;8.80;;;14.40;84.90;;;;;;5022267;28;20037;-69
2021/09/12 05:41:01;;;;;;;13.05;7.72;;;14.40;84.80;;;;;;5023728;28;20029;-70
2021/09/12 05:43:26;;;;;;;17.73;8.70;;;14.50;84.90;;;;;;5021722;28;20088;-69
2021/09/12 05:45:52;;;;;;;17.00;9.02;;;14.50;84.80;;;;;;5007274;28;20055;-70
2021/09/12 05:48:18;;;;;;;12.30;7.95;;;14.50;84.70;;;;;;5003519;28;20570;-71
2021/09/12 05:50:44;;;;;;;11.65;8.05;;;14.60;84.80;;;;;;5017978;28;20037;-69
2021/09/12 05:53:10;;;;;;;17.13;8.70;;;14.60;84.70;;;;;;5019707;28;20034;-69
2021/09/12 05:55:38;;;;;;;17.10;9.27;;;14.60;84.60;;;;;;5015577;28;20385;-70
2021/09/12 05:58:04;;;;;;;14.82;8.30;;;14.60;84.40;;;;;;5013901;28;20068;-69
2021/09/12 06:00:30;;;;;;;13.45;7.18;;;14.60;84.60;;;;;;5018268;28;20026;-70
2021/09/12 06:02:56;;;;;;;14.30;8.48;;;14.60;84.50;;;;;;5013799;28;20037;-70
2021/09/12 06:05:22;;;;;;;13.40;7.68;;;14.60;84.50;;;;;;5017985;28;20158;-70
2021/09/12 06:07:47;;;;;;;14.80;8.98;;;14.70;84.50;;;;;;4998698;28;20393;-70
2021/09/12 06:10:13;;;;;;;15.18;8.25;;;14.70;84.50;;;;;;5000008;28;20203;-69
2021/09/12 06:12:39;;;;;;;13.68;7.63;;;14.80;84.30;;;;;;5014890;28;20401;-70
2021/09/12 06:15:05;;;;;;;14.25;8.55;;;14.80;84.30;;;;;;5018061;28;20065;-69
2021/09/12 06:17:33;;;;;;;14.68;8.07;;;14.80;84.20;;;;;;5016639;28;20485;-70
2021/09/12 06:19:58;;;;;;;14.85;7.88;;;14.80;84.30;;;;;;5018932;28;20440;-69
2021/09/12 06:22:24;;;;;;;18.38;9.07;;;14.90;84.30;;;;;;5016620;28;20127;-71
2021/09/12 06:24:50;;;;;;;14.80;7.30;;;15.00;84.10;;;;;;5001643;28;20377;-70
2021/09/12 06:27:16;;;;;;;12.80;7.47;;;14.90;84.20;;;;;;5016257;28;20396;-70
2021/09/12 06:29:41;;;;;;;12.75;7.38;;;15.00;84.30;;;;;;5020138;28;20474;-69
2021/09/12 06:32:07;;;;;;;14.73;8.20;;;15.10;84.20;;;;;;5018546;28;20034;-69
2021/09/12 06:34:33;;;;;;;13.27;6.95;;;15.20;84.10;;;;;;5018452;28;20124;-69
2021/09/12 06:36:59;;;;;;;12.88;7.03;;;15.20;83.70;;;;;;4996279;28;20057;-69
2021/09/12 06:39:25;;;;;;;14.43;7.18;;;15.40;83.60;;;;;;5009670;28;20037;-70
2021/09/12 06:41:51;;;;;;;14.70;7.18;;;15.50;83.40;;;;;;5017482;28;20029;-70
2021/09/12 06:44:17;;;;;;;14.57;7.45;;;15.60;83.30;;;;;;5018289;28;20052;-68
2021/09/12 06:46:43;;;;;;;13.55;7.00;;;15.60;83.00;;;;;;5016739;28;20384;-68
2021/09/12 06:49:08;;;;;;;14.75;7.40;;;15.60;82.60;;;;;;5022338;28;20042;-69
2021/09/12 06:51:34;;;;;;;14.43;7.63;;;15.80;82.60;;;;;;5018823;28;20041;-70
2021/09/12 06:54:00;;;;;;;14.35;7.80;;;15.80;82.50;;;;;;5017342;28;20037;-68
2021/09/12 06:56:25;;;;;;;16.52;7.43;;;15.90;82.40;;;;;;5015080;28;20123;-69
2021/09/12 06:58:51;;;;;;;14.85;7.60;;;15.90;82.40;;;;;;5016417;28;20033;-69
2021/09/12 07:01:17;;;;;;;15.73;7.57;;;16.00;82.30;;;;;;5016996;28;20117;-70
2021/09/12 07:03:42;;;;;;;14.90;7.18;;;16.10;82.40;;;;;;5020684;28;20637;-70
2021/09/12 07:06:09;;;;;;;16.17;7.47;;;16.10;82.30;;;;;;5002364;28;20046;-70
2021/09/12 07:08:34;;;;;;;14.10;7.72;;;16.20;81.90;;;;;;5019171;28;20271;-69
2021/09/12 07:11:00;;;;;;;14.23;7.95;;;16.20;81.90;;;;;;5018340;28;20186;-69
2021/09/12 07:13:26;;;;;;;15.38;7.22;;;16.20;81.50;;;;;;5019170;28;20384;-70
2021/09/12 07:15:51;;;;;;;15.30;7.68;;;16.30;81.90;;;;;;5000025;28;20064;-69
2021/09/12 07:18:17;;;;;;;19.17;7.80;;;16.40;81.60;;;;;;5000610;28;20053;-69
2021/09/12 07:20:43;;;;;;;14.88;7.70;;;16.50;81.70;;;;;;5019280;28;20021;-68
2021/09/12 07:23:09;;;;;;;13.07;7.97;;;16.50;81.60;;;;;;5022537;28;20108;-69
2021/09/12 07:25:34;;;;;;;15.43;7.28;;;16.60;81.60;;;;;;5025721;28;20033;-68
2021/09/12 07:28:00;;;;;;;16.20;7.55;;;16.70;81.10;;;;;;5023538;28;20101;-70
2021/09/12 07:30:26;;;;;;;12.73;7.80;;;16.80;80.80;;;;;;5019947;28;20041;-68
2021/09/12 07:32:52;;;;;;;12.23;7.40;;;16.80;80.50;;;;;;5027391;28;20167;-69
2021/09/12 07:35:18;;;;;;;15.13;7.53;;;17.00;80.20;;;;;;5025326;28;20432;-68
2021/09/12 07:37:44;;;;;;;13.25;7.47;;;17.10;80.30;;;;;;5024178;28;20046;-70
2021/09/12 07:40:10;;;;;;;12.38;7.93;;;17.10;80.10;;;;;;5022211;28;20373;-69
2021/09/12 07:42:36;;;;;;;15.80;8.45;;;17.20;79.70;;;;;;5028275;28;20113;-70
2021/09/12 07:45:02;;;;;;;15.13;7.65;;;17.20;79.20;;;;;;5021505;28;20128;-68
2021/09/12 07:47:28;;;;;;;16.08;7.95;;;17.20;79.40;;;;;;5025946;28;20117;-68
2021/09/12 07:49:53;;;;;;;15.65;7.50;;;17.30;79.50;;;;;;5009805;28;20424;-68
2021/09/12 07:52:19;;;;;;;17.50;8.57;;;17.30;79.40;;;;;;5015656;28;20163;-68
2021/09/12 07:54:45;;;;;;;12.75;7.40;;;17.30;79.70;;;;;;5017691;28;20057;-69
2021/09/12 07:57:10;;;;;;;14.57;7.88;;;17.30;79.60;;;;;;5021466;28;20475;-68
2021/09/12 07:59:36;;;;;;;17.40;8.50;;;17.30;79.50;;;;;;5020996;28;20045;-67
2021/09/12 08:02:02;;;;;;;15.55;8.02;;;17.40;79.50;;;;;;5018627;28;20033;-67
2021/09/12 08:04:28;;;;;;;14.32;8.18;;;17.30;79.80;;;;;;5022129;28;20369;-70
2021/09/12 08:06:53;;;;;;;16.80;8.07;;;17.40;79.80;;;;;;5023201;28;20057;-69
2021/09/12 08:09:19;;;;;;;14.93;8.07;;;17.60;79.70;;;;;;5027050;28;20069;-69
2021/09/12 08:11:44;;;;;;;17.15;8.77;;;17.70;79.00;;;;;;5020193;28;20034;-68
2021/09/12 08:14:11;;;;;;;17.88;8.93;;;17.80;78.50;;;;;;5024558;28;20028;-69
2021/09/12 08:16:37;;;;;;;15.15;8.00;;;18.00;78.20;;;;;;5023655;28;20500;-69
2021/09/12 08:19:02;;;;;;;16.08;8.48;;;18.10;77.90;;;;;;5007969;28;20038;-68
2021/09/12 08:21:28;;;;;;;16.75;8.02;;;18.20;77.20;;;;;;5025855;28;20424;-68
2021/09/12 08:23:54;;;;;;;17.45;8.55;;;18.20;77.60;;;;;;5023904;28;20052;-68
2021/09/12 08:26:21;;;;;;;17.00;9.38;;;18.40;77.40;;;;;;5024065;28;20112;-68
2021/09/12 08:28:47;;;;;;;17.17;8.70;;;18.40;77.10;;;;;;5020664;28;20052;-68
2021/09/12 08:31:13;;;;;;;15.98;8.80;;;18.60;76.70;;;;;;5019054;28;20038;-70
2021/09/12 08:33:38;;;;;;;15.38;8.88;;;18.70;76.40;;;;;;5025577;28;20040;-68
2021/09/12 08:36:04;;;;;;;12.60;8.20;;;18.80;76.40;;;;;;5005656;28;20164;-68
2021/09/12 08:38:30;;;;;;;14.32;8.93;;;19.00;75.60;;;;;;5020089;28;20513;-68
2021/09/12 08:40:59;;;;;;;18.55;8.95;;;19.20;75.10;;;;;;5022243;28;20030;-70
2021/09/12 08:43:26;;;;;;;17.75;8.93;;;19.30;74.40;;;;;;5020046;28;20095;-70
2021/09/12 08:45:53;;;;;;;18.60;9.50;;;19.60;74.50;;;;;;5019729;28;20491;-71
2021/09/12 08:48:18;;;;;;;17.15;8.32;;;19.70;73.70;;;;;;5022256;28;20041;-69
2021/09/12 08:50:45;;;;;;;18.42;9.48;;;19.90;73.40;;;;;;5024004;28;20033;-69
2021/09/12 08:53:11;;;;;;;15.25;8.52;;;20.00;73.00;;;;;;5005546;28;20041;-69
2021/09/12 08:55:37;;;;;;;12.90;8.40;;;20.10;72.40;;;;;;5004885;28;20599;-68
2021/09/12 08:58:04;;;;;;;15.77;8.38;;;20.30;71.90;;;;;;5019908;28;20050;-68
2021/09/12 09:00:31;;;;;;;17.15;8.82;;;20.50;71.10;;;;;;5024175;28;20114;-68
2021/09/12 09:03:04;;;;;;;14.73;8.60;;;20.60;71.60;;;;;;5020881;28;20446;-68
2021/09/12 09:05:35;;;;;;;14.23;8.37;;;20.70;71.10;;;;;;5020457;28;20381;-69
2021/09/12 09:08:13;;;;;;;16.55;8.73;;;20.70;71.00;;;;;;5023919;28;20616;-71
2021/09/12 09:10:47;;;;;;;15.25;8.82;;;20.80;70.70;;;;;;5002840;28;20489;-68
2021/09/12 09:13:36;;;;;;;;;;;21.00;70.90;;;;;;5025423;28;20033;-68
2021/09/12 09:16:07;;;;;;;15.95;9.52;;;21.10;69.50;;;;;;5021663;28;19925;-71
2021/09/12 09:18:41;;;;;;;19.05;9.88;;;21.00;70.00;;;;;;5025517;28;20045;-69
2021/09/12 09:21:32;;;;;;;20.90;9.30;;;21.20;69.20;;;;;;5020571;28;20099;-69
2021/09/12 09:24:08;;;;;;;14.15;8.77;;;21.20;69.00;;;;;;5023757;28;20491;-69
2021/09/12 09:26:45;;;;;;;15.63;9.02;;;21.30;69.50;;;;;;5020290;28;20032;-68
2021/09/12 09:29:13;;;;;;;13.02;8.93;;;21.40;68.70;;;;;;5004588;28;20404;-69
2021/09/12 09:31:39;;;;;;;14.48;9.20;;;21.40;69.10;;;;;;5018852;28;20030;-68
2021/09/12 09:34:20;;;;;;;14.95;9.02;;;21.30;69.50;;;;;;5023154;28;20389;-69
2021/09/12 09:36:48;;;;;;;13.25;9.13;;;21.40;69.10;;;;;;5022522;28;20040;-68
2021/09/12 09:39:35;;;;;;;16.63;9.70;;;21.40;69.40;;;;;;5019092;28;20441;-68
2021/09/12 09:42:01;;;;;;;17.60;9.80;;;21.40;69.50;;;;;;5014275;28;20493;-70
2021/09/12 09:44:26;;;;;;;15.00;10.13;;;21.60;69.50;;;;;;5025083;28;20072;-68
2021/09/12 09:46:53;;;;;;;14.32;10.43;;;21.60;68.60;;;;;;5025218;28;20056;-69
2021/09/12 09:49:24;;;;;;;14.30;10.05;;;21.60;69.00;;;;;;5005105;28;20246;-68
2021/09/12 09:51:55;;;;;;;17.45;10.73;;;21.70;68.50;;;;;;5027366;28;20121;-67
2021/09/12 09:54:24;;;;;;;18.08;10.52;;;21.50;68.90;;;;;;5023745;28;20060;-68
2021/09/12 09:56:51;;;;;;;16.25;10.80;;;21.40;69.70;;;;;;5022135;28;20041;-68
2021/09/12 09:59:18;;;;;;;19.73;11.00;;;21.40;70.30;;;;;;5022561;28;20037;-68
2021/09/12 10:01:51;;;;;;;14.65;9.77;;;21.40;70.80;;;;;;5022586;28;20030;-68
2021/09/12 10:04:18;;;;;;;15.18;9.68;;;21.60;69.30;;;;;;5002549;28;20033;-68
2021/09/12 10:06:45;;;;;;;18.17;9.82;;;21.80;69.40;;;;;;5026094;28;21535;-72
2021/09/12 10:09:12;;;;;;;17.40;9.80;;;21.90;69.00;;;;;;5019244;28;20092;-67
2021/09/12 10:11:42;;;;;;;14.77;9.18;;;22.10;68.60;;;;;;5018030;28;20057;-68
2021/09/12 10:14:11;;;;;;;12.52;8.57;;;22.20;68.50;;;;;;5021218;28;20060;-68
2021/09/12 10:16:38;;;;;;;14.27;9.55;;;22.40;66.90;;;;;;5021766;28;20527;-68
2021/09/12 10:19:04;;;;;;;14.95;9.98;;;22.20;67.20;;;;;;5004503;28;20417;-68
2021/09/12 10:21:30;;;;;;;14.57;9.85;;;22.30;66.90;;;;;;5025520;28;20421;-68
2021/09/12 10:24:05;;;;;;;13.15;8.80;;;22.40;66.70;;;;;;5021605;28;20521;-69
2021/09/12 10:26:38;;;;;;;16.15;10.05;;;22.40;66.80;;;;;;5026015;28;20039;-68
2021/09/12 10:29:05;;;;;;;13.25;10.40;;;22.60;66.30;;;;;;5004442;28;20443;-68
2021/09/12 10:31:35;;;;;;;15.13;10.70;;;22.60;65.50;;;;;;5009049;28;20028;-69
2021/09/12 10:34:13;;;;;;;14.00;10.45;;;22.90;65.90;;;;;;5026841;28;20408;-68
2021/09/12 10:36:41;;;;;;;17.25;11.73;;;22.90;65.40;;;;;;5016895;28;20030;-68
2021/09/12 10:39:35;;;;;;;14.10;10.65;;;22.90;65.00;;;;;;5020927;28;20345;-68
2021/09/12 10:42:09;;;;;;;15.97;10.83;;;22.80;64.20;;;;;;5019701;28;20049;-69
2021/09/12 10:44:35;;;;;;;15.07;9.27;;;22.60;65.00;;;;;;5008777;28;20041;-67
2021/09/12 10:47:13;;;;;;;14.43;8.93;;;22.40;65.60;;;;;;5001184;28;21289;-70
2021/09/12 10:49:40;;;;;;;13.00;8.98;;;22.40;65.40;;;;;;5005203;28;20042;-68
2021/09/12 10:52:10;;;;;;;12.73;8.75;;;22.50;65.60;;;;;;5021218;28;20063;-68
2021/09/12 10:55:08;;;;;;;14.85;10.27;;;22.60;63.90;;;;;;5012225;28;20120;-68
2021/09/12 10:57:37;;;;;;;14.85;11.18;;;22.20;65.80;;;;;;5028182;28;20492;-68
2021/09/12 11:00:10;;;;;;;16.63;10.85;;;22.10;67.00;;;;;;5027205;28;20539;-69
2021/09/12 11:02:42;;;;;;;14.48;10.85;;;22.50;66.20;;;;;;5020366;28;20045;-69
2021/09/12 11:05:25;;;;;;;13.07;9.75;;;22.80;65.70;;;;;;4998320;28;20037;-68
2021/09/12 11:07:55;;;;;;;15.77;10.23;;;23.00;64.60;;;;;;5031169;28;20042;-68
2021/09/12 11:10:40;;;;;;;16.10;12.30;;;22.60;63.50;;;;;;5026104;28;20046;-68
2021/09/12 11:13:07;;;;;;;16.30;10.18;;;22.60;64.70;;;;;;5028151;28;20038;-68
2021/09/12 11:15:34;;;;;;;16.67;10.15;;;22.60;64.10;;;;;;5024998;28;20041;-68
2021/09/12 11:18:01;;;;;;;11.75;9.10;;;22.60;64.50;;;;;;5020028;28;20544;-69
2021/09/12 11:20:43;;;;;;;12.57;9.73;;;22.80;63.90;;;;;;5025391;28;20057;-70
2021/09/12 11:23:10;;;;;;;14.50;10.27;;;22.80;62.90;;;;;;5030388;28;20059;-71
2021/09/12 11:25:37;;;;;;;15.35;10.73;;;22.80;62.80;;;;;;5032590;28;20034;-69
2021/09/12 11:28:07;;;;;;;14.88;10.35;;;22.70;63.60;;;;;;5029596;28;20042;-68
2021/09/12 11:30:34;;;;;;;15.82;10.13;;;22.70;63.70;;;;;;5014556;28;20130;-67
2021/09/12 11:33:01;;;;;;;15.45;11.13;;;23.00;62.90;;;;;;5029293;28;20499;-69
2021/09/12 11:35:27;;;;;;;15.90;10.93;;;23.10;62.80;;;;;;5031254;28;20065;-68
2021/09/12 11:38:25;;;;;;;15.82;10.77;;;23.40;62.10;;;;;;5024291;28;20065;-68
2021/09/12 11:40:56;;;;;;;14.40;10.60;;;23.50;61.40;;;;;;5011965;28;20033;-68
2021/09/12 11:43:22;;;;;;;13.55;9.35;;;23.40;61.80;;;;;;5026511;28;20036;-68
2021/09/12 11:46:04;;;;;;;16.58;11.75;;;23.60;62.50;;;;;;5030379;28;20400;-71
2021/09/12 11:48:30;;;;;;;14.43;11.82;;;23.60;61.30;;;;;;5029562;28;20045;-68
2021/09/12 11:50:56;;;;;;;16.50;11.75;;;23.70;61.20;;;;;;5025491;28;20030;-70
2021/09/12 11:53:26;;;;;;;15.80;12.38;;;23.50;62.00;;;;;;5025882;28;20107;-68
2021/09/12 11:55:52;;;;;;;16.80;13.00;;;23.50;62.50;;;;;;5030318;28;20420;-69
2021/09/12 11:58:18;;;;;;;16.02;13.35;;;23.50;62.60;;;;;;5028534;28;20052;-69
2021/09/12 12:00:47;;;;;;;18.10;13.35;;;23.60;61.60;;;;;;5026870;28;20048;-68
2021/09/12 12:03:24;;;;;;;17.25;15.50;;;23.80;62.10;;;;;;5029827;28;20144;-70
2021/09/12 12:05:50;;;;;;;21.75;19.55;;;23.70;61.60;;;;;;5024931;28;20045;-69
2021/09/12 12:08:18;;;;;;;22.00;18.10;;;23.70;61.20;;;;;;5020542;28;20400;-68
2021/09/12 12:10:44;;;;;;;21.00;18.73;;;23.80;61.60;;;;;;5023293;28;20033;-68
2021/09/12 12:13:10;;;;;;;18.65;16.38;;;23.60;61.50;;;;;;5020491;28;20121;-68
2021/09/12 12:15:37;;;;;;;17.38;14.43;;;23.30;63.00;;;;;;5021968;28;20168;-68
2021/09/12 12:18:14;;;;;;;15.50;13.18;;;22.80;63.40;;;;;;5025851;28;20033;-69
2021/09/12 12:20:42;;;;;;;14.45;12.95;;;22.40;64.00;;;;;;5008391;28;20052;-68
2021/09/12 12:23:21;;;;;;;16.02;11.40;;;22.20;64.60;;;;;;5023239;28;20056;-69
2021/09/12 12:25:49;;;;;;;13.38;10.02;;;22.10;65.50;;;;;;5022019;28;20377;-68
2021/09/12 12:28:15;;;;;;;14.90;9.82;;;22.10;65.80;;;;;;5020417;28;20038;-68
2021/09/12 12:30:42;;;;;;;15.98;10.13;;;22.10;66.10;;;;;;5020805;28;20053;-68
2021/09/12 12:33:08;;;;;;;15.25;10.38;;;22.00;66.70;;;;;;5021930;28;20037;-68
2021/09/12 12:35:33;;;;;;;14.05;10.27;;;21.90;67.10;;;;;;5023098;28;20412;-68